sensor_id;sensor_type;location;lat;lon;timestamp;P1;durP1;ratioP1;P2;durP2;ratioP2
71763;SDS011;59602;52.142;5.408;2023-05-07T02:59:57;8.57;;;6.67;;
71763;SDS011;59602;52.142;5.408;2023-05-07T03:12:27;6.68;;;5.75;;
71763;SDS011;59602;52.142;5.408;2023-05-07T04:24:45;7.57;;;6.27;;
71763;SDS011;59602;52.142;5.408;2023-05-07T04:28:38;7.85;;;6.13;;
71763;SDS011;59602;52.142;5.408;2023-05-07T05:12:39;11.48;;;7.25;;
71763;SDS011;59602;52.142;5.408;2023-05-07T05:20:09;11.77;;;7.28;;
71763;SDS011;59602;52.142;5.408;2023-05-07T06:09:53;12.37;;;8.27;;
71763;SDS011;59602;52.142;5.408;2023-05-07T06:16:34;14.07;;;9.33;;
71763;SDS011;59602;52.142;5.408;2023-05-07T06:24:15;89.80;;;40.95;;
71763;SDS011;59602;52.142;5.408;2023-05-07T06:27:08;25.13;;;15.27;;
71763;SDS011;59602;52.142;5.408;2023-05-07T06:34:00;27.37;;;15.20;;
71763;SDS011;59602;52.142;5.408;2023-05-07T06:37:00;17.42;;;10.68;;
71763;SDS011;59602;52.142;5.408;2023-05-07T06:39:53;24.85;;;13.15;;
71763;SDS011;59602;52.142;5.408;2023-05-07T06:46:43;18.02;;;10.45;;
71763;SDS011;59602;52.142;5.408;2023-05-07T06:52:42;15.65;;;9.77;;
71763;SDS011;59602;52.142;5.408;2023-05-07T06:55:28;15.48;;;10.00;;
71763;SDS011;59602;52.142;5.408;2023-05-07T07:02:54;16.35;;;10.93;;
71763;SDS011;59602;52.142;5.408;2023-05-07T07:21:16;13.70;;;9.75;;
71763;SDS011;59602;52.142;5.408;2023-05-07T07:30:52;14.85;;;9.93;;
71763;SDS011;59602;52.142;5.408;2023-05-07T07:36:11;14.57;;;9.77;;
71763;SDS011;59602;52.142;5.408;2023-05-07T07:38:54;13.47;;;10.00;;
71763;SDS011;59602;52.142;5.408;2023-05-07T07:44:48;18.08;;;11.07;;
71763;SDS011;59602;52.142;5.408;2023-05-07T07:47:15;15.25;;;10.82;;
71763;SDS011;59602;52.142;5.408;2023-05-07T07:50:29;13.77;;;10.40;;
71763;SDS011;59602;52.142;5.408;2023-05-07T07:53:12;15.17;;;10.23;;
71763;SDS011;59602;52.142;5.408;2023-05-07T07:56:01;16.17;;;10.30;;
71763;SDS011;59602;52.142;5.408;2023-05-07T07:59:03;15.90;;;10.60;;
71763;SDS011;59602;52.142;5.408;2023-05-07T08:02:48;15.05;;;10.38;;
71763;SDS011;59602;52.142;5.408;2023-05-07T08:06:00;15.30;;;10.95;;
71763;SDS011;59602;52.142;5.408;2023-05-07T08:13:32;14.38;;;9.93;;
71763;SDS011;59602;52.142;5.408;2023-05-07T08:16:17;16.20;;;10.68;;
71763;SDS011;59602;52.142;5.408;2023-05-07T08:23:48;14.57;;;10.23;;
71763;SDS011;59602;52.142;5.408;2023-05-07T08:30:08;15.25;;;10.85;;
71763;SDS011;59602;52.142;5.408;2023-05-07T08:32:36;15.38;;;10.82;;
71763;SDS011;59602;52.142;5.408;2023-05-07T08:35:03;18.33;;;12.15;;
71763;SDS011;59602;52.142;5.408;2023-05-07T08:37:31;16.02;;;11.10;;
71763;SDS011;59602;52.142;5.408;2023-05-07T08:39:58;15.80;;;11.73;;
71763;SDS011;59602;52.142;5.408;2023-05-07T08:42:27;16.58;;;11.02;;
71763;SDS011;59602;52.142;5.408;2023-05-07T08:44:56;16.50;;;11.48;;
71763;SDS011;59602;52.142;5.408;2023-05-07T08:47:30;16.30;;;11.70;;
71763;SDS011;59602;52.142;5.408;2023-05-07T08:50:25;15.93;;;11.52;;
71763;SDS011;59602;52.142;5.408;2023-05-07T08:53:40;15.97;;;11.50;;
71763;SDS011;59602;52.142;5.408;2023-05-07T08:56:13;17.55;;;12.15;;
71763;SDS011;59602;52.142;5.408;2023-05-07T08:59:05;15.57;;;11.52;;
71763;SDS011;59602;52.142;5.408;2023-05-07T09:01:54;18.25;;;12.10;;
71763;SDS011;59602;52.142;5.408;2023-05-07T09:04:26;15.90;;;12.25;;
71763;SDS011;59602;52.142;5.408;2023-05-07T09:06:54;14.97;;;11.20;;
71763;SDS011;59602;52.142;5.408;2023-05-07T09:10:00;16.95;;;11.68;;
71763;SDS011;59602;52.142;5.408;2023-05-07T09:12:47;16.48;;;12.60;;
71763;SDS011;59602;52.142;5.408;2023-05-07T09:15:14;16.30;;;12.27;;
71763;SDS011;59602;52.142;5.408;2023-05-07T09:17:44;15.38;;;11.43;;
71763;SDS011;59602;52.142;5.408;2023-05-07T09:21:06;18.33;;;11.67;;
71763;SDS011;59602;52.142;5.408;2023-05-07T09:23:36;16.85;;;12.07;;
71763;SDS011;59602;52.142;5.408;2023-05-07T09:26:24;18.80;;;12.98;;
71763;SDS011;59602;52.142;5.408;2023-05-07T09:28:54;18.13;;;12.15;;
71763;SDS011;59602;52.142;5.408;2023-05-07T09:31:21;20.38;;;12.38;;
71763;SDS011;59602;52.142;5.408;2023-05-07T09:33:50;18.47;;;11.77;;
71763;SDS011;59602;52.142;5.408;2023-05-07T09:36:32;23.40;;;14.32;;
71763;SDS011;59602;52.142;5.408;2023-05-07T09:39:07;16.67;;;10.73;;
71763;SDS011;59602;52.142;5.408;2023-05-07T10:27:10;14.35;;;10.30;;
71763;SDS011;59602;52.142;5.408;2023-05-07T10:32:35;15.07;;;10.00;;
71763;SDS011;59602;52.142;5.408;2023-05-07T10:35:17;16.30;;;11.27;;
71763;SDS011;59602;52.142;5.408;2023-05-07T10:44:55;14.65;;;10.20;;
71763;SDS011;59602;52.142;5.408;2023-05-07T10:47:21;14.80;;;10.07;;
71763;SDS011;59602;52.142;5.408;2023-05-07T10:52:18;13.50;;;10.27;;
71763;SDS011;59602;52.142;5.408;2023-05-07T10:54:47;17.08;;;9.95;;
71763;SDS011;59602;52.142;5.408;2023-05-07T10:57:36;16.40;;;10.40;;
71763;SDS011;59602;52.142;5.408;2023-05-07T11:00:03;14.38;;;9.52;;
71763;SDS011;59602;52.142;5.408;2023-05-07T11:03:04;17.10;;;10.87;;
71763;SDS011;59602;52.142;5.408;2023-05-07T11:05:33;14.55;;;9.90;;
71763;SDS011;59602;52.142;5.408;2023-05-07T11:08:03;13.82;;;9.90;;
71763;SDS011;59602;52.142;5.408;2023-05-07T11:10:56;15.80;;;10.32;;
71763;SDS011;59602;52.142;5.408;2023-05-07T11:18:46;14.07;;;10.48;;
71763;SDS011;59602;52.142;5.408;2023-05-07T11:21:31;14.00;;;10.10;;
71763;SDS011;59602;52.142;5.408;2023-05-07T11:23:59;15.68;;;10.32;;
71763;SDS011;59602;52.142;5.408;2023-05-07T11:26:28;18.55;;;11.75;;
71763;SDS011;59602;52.142;5.408;2023-05-07T11:28:57;14.97;;;11.20;;
71763;SDS011;59602;52.142;5.408;2023-05-07T11:31:27;17.50;;;10.85;;
71763;SDS011;59602;52.142;5.408;2023-05-07T11:33:58;14.63;;;10.55;;
71763;SDS011;59602;52.142;5.408;2023-05-07T11:36:32;15.25;;;11.13;;
71763;SDS011;59602;52.142;5.408;2023-05-07T11:38:59;15.48;;;10.63;;
71763;SDS011;59602;52.142;5.408;2023-05-07T11:41:34;16.97;;;11.13;;
71763;SDS011;59602;52.142;5.408;2023-05-07T11:44:02;15.55;;;10.75;;
71763;SDS011;59602;52.142;5.408;2023-05-07T11:46:42;16.75;;;11.57;;
71763;SDS011;59602;52.142;5.408;2023-05-07T11:49:09;17.50;;;12.02;;
71763;SDS011;59602;52.142;5.408;2023-05-07T11:51:36;15.10;;;11.15;;
71763;SDS011;59602;52.142;5.408;2023-05-07T11:54:03;15.27;;;11.20;;
71763;SDS011;59602;52.142;5.408;2023-05-07T11:56:58;16.25;;;10.95;;
71763;SDS011;59602;52.142;5.408;2023-05-07T11:59:25;16.35;;;12.45;;
71763;SDS011;59602;52.142;5.408;2023-05-07T12:01:55;18.40;;;13.18;;
71763;SDS011;59602;52.142;5.408;2023-05-07T12:04:26;18.02;;;11.77;;
71763;SDS011;59602;52.142;5.408;2023-05-07T12:06:54;15.67;;;11.73;;
71763;SDS011;59602;52.142;5.408;2023-05-07T12:09:22;16.02;;;12.23;;
71763;SDS011;59602;52.142;5.408;2023-05-07T12:11:48;19.13;;;12.10;;
71763;SDS011;59602;52.142;5.408;2023-05-07T12:14:21;17.45;;;12.13;;
71763;SDS011;59602;52.142;5.408;2023-05-07T12:16:48;17.00;;;12.57;;
71763;SDS011;59602;52.142;5.408;2023-05-07T12:19:16;17.77;;;11.47;;
71763;SDS011;59602;52.142;5.408;2023-05-07T12:21:43;17.35;;;12.15;;
71763;SDS011;59602;52.142;5.408;2023-05-07T12:24:09;16.45;;;12.00;;
71763;SDS011;59602;52.142;5.408;2023-05-07T12:26:38;19.48;;;12.07;;
71763;SDS011;59602;52.142;5.408;2023-05-07T12:29:07;16.50;;;11.73;;
71763;SDS011;59602;52.142;5.408;2023-05-07T12:31:33;15.23;;;11.90;;
71763;SDS011;59602;52.142;5.408;2023-05-07T12:34:00;17.67;;;11.88;;
71763;SDS011;59602;52.142;5.408;2023-05-07T12:54:34;13.98;;;10.88;;
71763;SDS011;59602;52.142;5.408;2023-05-07T12:56:37;12.88;;;9.70;;
71763;SDS011;59602;52.142;5.408;2023-05-07T12:59:03;13.70;;;10.37;;
71763;SDS011;59602;52.142;5.408;2023-05-07T13:24:49;9.35;;;7.28;;
71763;SDS011;59602;52.142;5.408;2023-05-07T13:27:18;11.33;;;7.87;;
71763;SDS011;59602;52.142;5.408;2023-05-07T13:29:49;11.30;;;8.57;;
71763;SDS011;59602;52.142;5.408;2023-05-07T13:32:17;10.90;;;8.27;;
71763;SDS011;59602;52.142;5.408;2023-05-07T13:34:44;10.00;;;7.60;;
71763;SDS011;59602;52.142;5.408;2023-05-07T13:42:28;13.43;;;9.13;;
71763;SDS011;59602;52.142;5.408;2023-05-07T13:44:55;14.77;;;9.90;;
71763;SDS011;59602;52.142;5.408;2023-05-07T13:47:23;12.85;;;9.25;;
71763;SDS011;59602;52.142;5.408;2023-05-07T13:57:06;12.25;;;8.68;;
71763;SDS011;59602;52.142;5.408;2023-05-07T13:59:35;11.77;;;9.00;;
71763;SDS011;59602;52.142;5.408;2023-05-07T14:02:05;13.88;;;9.85;;
71763;SDS011;59602;52.142;5.408;2023-05-07T14:04:38;12.10;;;9.40;;
71763;SDS011;59602;52.142;5.408;2023-05-07T14:07:11;12.23;;;9.40;;
71763;SDS011;59602;52.142;5.408;2023-05-07T14:09:38;13.73;;;9.98;;
71763;SDS011;59602;52.142;5.408;2023-05-07T14:12:40;12.98;;;9.75;;
71763;SDS011;59602;52.142;5.408;2023-05-07T14:15:10;14.23;;;10.27;;
71763;SDS011;59602;52.142;5.408;2023-05-07T14:17:38;14.60;;;9.90;;
71763;SDS011;59602;52.142;5.408;2023-05-07T14:20:11;15.43;;;10.73;;
71763;SDS011;59602;52.142;5.408;2023-05-07T14:22:54;14.07;;;9.25;;
71763;SDS011;59602;52.142;5.408;2023-05-07T14:25:24;15.30;;;9.95;;
71763;SDS011;59602;52.142;5.408;2023-05-07T14:27:54;14.13;;;9.32;;
71763;SDS011;59602;52.142;5.408;2023-05-07T14:30:29;13.57;;;10.70;;
71763;SDS011;59602;52.142;5.408;2023-05-07T14:35:59;14.82;;;11.02;;
71763;SDS011;59602;52.142;5.408;2023-05-07T14:38:30;15.52;;;11.05;;
71763;SDS011;59602;52.142;5.408;2023-05-07T14:41:24;12.60;;;9.23;;
71763;SDS011;59602;52.142;5.408;2023-05-07T14:43:54;11.60;;;8.98;;
71763;SDS011;59602;52.142;5.408;2023-05-07T14:46:31;12.43;;;9.20;;
71763;SDS011;59602;52.142;5.408;2023-05-07T14:49:01;12.10;;;9.20;;
71763;SDS011;59602;52.142;5.408;2023-05-07T14:51:35;14.35;;;9.50;;
71763;SDS011;59602;52.142;5.408;2023-05-07T14:54:29;13.57;;;8.65;;
71763;SDS011;59602;52.142;5.408;2023-05-07T14:57:09;13.52;;;8.27;;
71763;SDS011;59602;52.142;5.408;2023-05-07T14:59:58;13.60;;;8.70;;
71763;SDS011;59602;52.142;5.408;2023-05-07T15:37:09;8.70;;;5.93;;
71763;SDS011;59602;52.142;5.408;2023-05-07T15:43:44;8.32;;;4.88;;
71763;SDS011;59602;52.142;5.408;2023-05-07T15:46:31;8.80;;;3.80;;
71763;SDS011;59602;52.142;5.408;2023-05-07T15:49:01;6.93;;;3.70;;
71763;SDS011;59602;52.142;5.408;2023-05-07T15:51:30;8.20;;;3.88;;
71763;SDS011;59602;52.142;5.408;2023-05-07T15:54:02;6.05;;;3.05;;
71763;SDS011;59602;52.142;5.408;2023-05-07T15:56:37;3.38;;;1.70;;
71763;SDS011;59602;52.142;5.408;2023-05-07T16:03:26;3.80;;;1.20;;
71763;SDS011;59602;52.142;5.408;2023-05-07T16:05:54;2.42;;;0.95;;
71763;SDS011;59602;52.142;5.408;2023-05-07T16:08:29;5.40;;;1.40;;
71763;SDS011;59602;52.142;5.408;2023-05-07T16:11:10;5.05;;;1.33;;
71763;SDS011;59602;52.142;5.408;2023-05-07T16:13:37;2.22;;;1.05;;
71763;SDS011;59602;52.142;5.408;2023-05-07T16:16:05;2.80;;;1.33;;
71763;SDS011;59602;52.142;5.408;2023-05-07T16:18:31;4.05;;;1.40;;
71763;SDS011;59602;52.142;5.408;2023-05-07T16:20:58;3.92;;;1.92;;
71763;SDS011;59602;52.142;5.408;2023-05-07T16:23:26;3.55;;;1.40;;
71763;SDS011;59602;52.142;5.408;2023-05-07T16:29:15;6.10;;;1.90;;
71763;SDS011;59602;52.142;5.408;2023-05-07T16:31:44;4.15;;;1.50;;
71763;SDS011;59602;52.142;5.408;2023-05-07T16:34:10;3.90;;;1.80;;
71763;SDS011;59602;52.142;5.408;2023-05-07T16:36:37;4.78;;;1.92;;
71763;SDS011;59602;52.142;5.408;2023-05-07T16:39:21;4.53;;;2.05;;
71763;SDS011;59602;52.142;5.408;2023-05-07T16:42:02;3.40;;;1.87;;
71763;SDS011;59602;52.142;5.408;2023-05-07T16:47:30;2.90;;;2.47;;
71763;SDS011;59602;52.142;5.408;2023-05-07T16:50:18;3.38;;;2.45;;
71763;SDS011;59602;52.142;5.408;2023-05-07T16:53:03;6.78;;;2.80;;
71763;SDS011;59602;52.142;5.408;2023-05-07T16:55:36;5.20;;;2.67;;
71763;SDS011;59602;52.142;5.408;2023-05-07T16:58:24;5.10;;;2.88;;
71763;SDS011;59602;52.142;5.408;2023-05-07T17:04:57;6.45;;;2.25;;
71763;SDS011;59602;52.142;5.408;2023-05-07T17:23:03;3.60;;;2.00;;
71763;SDS011;59602;52.142;5.408;2023-05-07T17:29:19;4.28;;;2.75;;
71763;SDS011;59602;52.142;5.408;2023-05-07T17:32:11;3.70;;;3.00;;
71763;SDS011;59602;52.142;5.408;2023-05-07T17:35:18;5.60;;;2.90;;
71763;SDS011;59602;52.142;5.408;2023-05-07T17:37:48;3.97;;;3.00;;
71763;SDS011;59602;52.142;5.408;2023-05-07T17:40:38;5.53;;;2.90;;
71763;SDS011;59602;52.142;5.408;2023-05-07T17:43:30;4.22;;;3.08;;
71763;SDS011;59602;52.142;5.408;2023-05-07T17:50:09;4.60;;;3.38;;
71763;SDS011;59602;52.142;5.408;2023-05-07T17:56:31;4.80;;;2.93;;
71763;SDS011;59602;52.142;5.408;2023-05-07T17:59:46;4.70;;;3.47;;
71763;SDS011;59602;52.142;5.408;2023-05-07T18:02:53;3.33;;;3.00;;
71763;SDS011;59602;52.142;5.408;2023-05-07T18:05:45;6.38;;;4.95;;
71763;SDS011;59602;52.142;5.408;2023-05-07T18:08:13;5.90;;;4.40;;
71763;SDS011;59602;52.142;5.408;2023-05-07T18:10:40;7.97;;;5.37;;
71763;SDS011;59602;52.142;5.408;2023-05-07T18:13:37;5.20;;;4.60;;
71763;SDS011;59602;52.142;5.408;2023-05-07T18:16:27;5.43;;;4.70;;
71763;SDS011;59602;52.142;5.408;2023-05-07T18:18:54;5.50;;;4.30;;
71763;SDS011;59602;52.142;5.408;2023-05-07T18:21:24;6.72;;;4.72;;
71763;SDS011;59602;52.142;5.408;2023-05-07T18:23:51;6.10;;;4.37;;
71763;SDS011;59602;52.142;5.408;2023-05-07T18:26:18;4.65;;;4.10;;
71763;SDS011;59602;52.142;5.408;2023-05-07T18:28:46;5.05;;;4.47;;
71763;SDS011;59602;52.142;5.408;2023-05-07T18:31:13;5.72;;;4.43;;
71763;SDS011;59602;52.142;5.408;2023-05-07T18:33:39;5.18;;;4.40;;
71763;SDS011;59602;52.142;5.408;2023-05-07T18:36:24;5.43;;;4.50;;
71763;SDS011;59602;52.142;5.408;2023-05-07T18:38:56;5.80;;;4.35;;
71763;SDS011;59602;52.142;5.408;2023-05-07T18:41:23;6.03;;;4.47;;
71763;SDS011;59602;52.142;5.408;2023-05-07T18:43:50;5.00;;;4.50;;
71763;SDS011;59602;52.142;5.408;2023-05-07T18:46:16;5.10;;;4.60;;
71763;SDS011;59602;52.142;5.408;2023-05-07T18:48:44;5.77;;;5.07;;
71763;SDS011;59602;52.142;5.408;2023-05-07T18:51:11;6.45;;;4.72;;
71763;SDS011;59602;52.142;5.408;2023-05-07T18:53:38;6.03;;;4.53;;
71763;SDS011;59602;52.142;5.408;2023-05-07T18:56:05;6.97;;;4.93;;
71763;SDS011;59602;52.142;5.408;2023-05-07T18:58:34;6.57;;;5.10;;
71763;SDS011;59602;52.142;5.408;2023-05-07T19:01:01;6.20;;;4.70;;
71763;SDS011;59602;52.142;5.408;2023-05-07T19:03:56;5.63;;;4.63;;
71763;SDS011;59602;52.142;5.408;2023-05-07T19:06:23;5.70;;;4.57;;
71763;SDS011;59602;52.142;5.408;2023-05-07T19:08:51;6.93;;;4.65;;
71763;SDS011;59602;52.142;5.408;2023-05-07T19:11:19;7.65;;;4.45;;
71763;SDS011;59602;52.142;5.408;2023-05-07T19:13:48;5.80;;;4.67;;
71763;SDS011;59602;52.142;5.408;2023-05-07T19:16:15;6.72;;;5.25;;
71763;SDS011;59602;52.142;5.408;2023-05-07T19:18:42;5.05;;;4.50;;
71763;SDS011;59602;52.142;5.408;2023-05-07T19:21:08;6.30;;;4.80;;
71763;SDS011;59602;52.142;5.408;2023-05-07T19:23:35;5.63;;;4.70;;
71763;SDS011;59602;52.142;5.408;2023-05-07T19:26:07;5.90;;;5.27;;
71763;SDS011;59602;52.142;5.408;2023-05-07T19:28:36;6.03;;;5.20;;
71763;SDS011;59602;52.142;5.408;2023-05-07T19:31:05;5.68;;;5.18;;
71763;SDS011;59602;52.142;5.408;2023-05-07T19:33:32;7.07;;;5.10;;
71763;SDS011;59602;52.142;5.408;2023-05-07T19:35:59;9.77;;;6.72;;
71763;SDS011;59602;52.142;5.408;2023-05-07T19:38:26;12.17;;;7.50;;
71763;SDS011;59602;52.142;5.408;2023-05-07T19:40:53;7.80;;;5.88;;
71763;SDS011;59602;52.142;5.408;2023-05-07T19:43:21;9.20;;;6.88;;
71763;SDS011;59602;52.142;5.408;2023-05-07T19:45:48;9.95;;;7.47;;
71763;SDS011;59602;52.142;5.408;2023-05-07T19:48:18;8.10;;;6.38;;
71763;SDS011;59602;52.142;5.408;2023-05-07T19:50:46;8.57;;;6.33;;
71763;SDS011;59602;52.142;5.408;2023-05-07T19:53:37;6.22;;;5.18;;
71763;SDS011;59602;52.142;5.408;2023-05-07T19:56:07;9.10;;;5.72;;
71763;SDS011;59602;52.142;5.408;2023-05-07T19:58:36;6.32;;;5.35;;
71763;SDS011;59602;52.142;5.408;2023-05-07T20:01:03;7.00;;;5.13;;
71763;SDS011;59602;52.142;5.408;2023-05-07T20:03:32;6.60;;;5.10;;
71763;SDS011;59602;52.142;5.408;2023-05-07T20:05:59;7.32;;;5.15;;
71763;SDS011;59602;52.142;5.408;2023-05-07T20:08:28;5.53;;;4.40;;
71763;SDS011;59602;52.142;5.408;2023-05-07T20:10:56;6.45;;;5.40;;
71763;SDS011;59602;52.142;5.408;2023-05-07T20:13:23;10.60;;;5.07;;
71763;SDS011;59602;52.142;5.408;2023-05-07T20:15:56;6.53;;;5.30;;
71763;SDS011;59602;52.142;5.408;2023-05-07T20:18:25;6.10;;;5.22;;
71763;SDS011;59602;52.142;5.408;2023-05-07T20:20:52;7.18;;;5.80;;
71763;SDS011;59602;52.142;5.408;2023-05-07T20:23:20;5.68;;;5.03;;
71763;SDS011;59602;52.142;5.408;2023-05-07T20:25:47;6.22;;;5.43;;
71763;SDS011;59602;52.142;5.408;2023-05-07T20:28:14;7.93;;;5.20;;
71763;SDS011;59602;52.142;5.408;2023-05-07T20:30:41;5.07;;;4.50;;
71763;SDS011;59602;52.142;5.408;2023-05-07T20:33:07;6.60;;;4.90;;
71763;SDS011;59602;52.142;5.408;2023-05-07T20:35:34;6.60;;;4.30;;
71763;SDS011;59602;52.142;5.408;2023-05-07T20:38:17;5.25;;;4.30;;
71763;SDS011;59602;52.142;5.408;2023-05-07T20:40:44;5.33;;;4.50;;
71763;SDS011;59602;52.142;5.408;2023-05-07T20:43:11;5.30;;;3.72;;
71763;SDS011;59602;52.142;5.408;2023-05-07T20:45:38;4.97;;;3.72;;
71763;SDS011;59602;52.142;5.408;2023-05-07T20:48:04;3.75;;;3.45;;
71763;SDS011;59602;52.142;5.408;2023-05-07T20:50:31;3.55;;;3.05;;
71763;SDS011;59602;52.142;5.408;2023-05-07T20:52:58;3.27;;;2.80;;
71763;SDS011;59602;52.142;5.408;2023-05-07T20:55:26;3.40;;;2.78;;
71763;SDS011;59602;52.142;5.408;2023-05-07T20:57:52;5.20;;;3.50;;
71763;SDS011;59602;52.142;5.408;2023-05-07T21:00:19;4.40;;;3.80;;
71763;SDS011;59602;52.142;5.408;2023-05-07T21:02:46;5.07;;;4.20;;
71763;SDS011;59602;52.142;5.408;2023-05-07T21:05:13;6.93;;;4.87;;
71763;SDS011;59602;52.142;5.408;2023-05-07T21:07:39;7.13;;;4.65;;
71763;SDS011;59602;52.142;5.408;2023-05-07T21:10:06;6.40;;;5.25;;
71763;SDS011;59602;52.142;5.408;2023-05-07T21:12:33;6.00;;;5.05;;
71763;SDS011;59602;52.142;5.408;2023-05-07T21:15:00;5.32;;;4.80;;
71763;SDS011;59602;52.142;5.408;2023-05-07T21:17:31;6.03;;;3.80;;
71763;SDS011;59602;52.142;5.408;2023-05-07T21:20:00;6.40;;;4.13;;
71763;SDS011;59602;52.142;5.408;2023-05-07T21:22:29;5.22;;;4.30;;
71763;SDS011;59602;52.142;5.408;2023-05-07T21:24:59;6.68;;;4.80;;
71763;SDS011;59602;52.142;5.408;2023-05-07T21:27:26;6.88;;;5.53;;
71763;SDS011;59602;52.142;5.408;2023-05-07T21:29:54;6.93;;;5.27;;
71763;SDS011;59602;52.142;5.408;2023-05-07T21:32:42;6.22;;;4.75;;
71763;SDS011;59602;52.142;5.408;2023-05-07T21:35:11;5.30;;;4.80;;
71763;SDS011;59602;52.142;5.408;2023-05-07T21:37:38;7.95;;;5.75;;
71763;SDS011;59602;52.142;5.408;2023-05-07T21:40:05;6.90;;;5.57;;
71763;SDS011;59602;52.142;5.408;2023-05-07T21:42:32;8.10;;;5.90;;
71763;SDS011;59602;52.142;5.408;2023-05-07T21:45:03;7.18;;;5.35;;
71763;SDS011;59602;52.142;5.408;2023-05-07T21:47:30;7.95;;;5.03;;
71763;SDS011;59602;52.142;5.408;2023-05-07T21:49:57;7.90;;;5.13;;
71763;SDS011;59602;52.142;5.408;2023-05-07T21:52:23;7.40;;;5.10;;
71763;SDS011;59602;52.142;5.408;2023-05-07T21:54:51;6.50;;;5.03;;
71763;SDS011;59602;52.142;5.408;2023-05-07T21:57:19;5.65;;;4.88;;
71763;SDS011;59602;52.142;5.408;2023-05-07T21:59:46;7.03;;;5.75;;
71763;SDS011;59602;52.142;5.408;2023-05-07T22:02:13;7.15;;;5.28;;
71763;SDS011;59602;52.142;5.408;2023-05-07T22:04:40;7.70;;;5.80;;
71763;SDS011;59602;52.142;5.408;2023-05-07T22:07:06;6.90;;;5.77;;
71763;SDS011;59602;52.142;5.408;2023-05-07T22:09:33;8.00;;;6.03;;
71763;SDS011;59602;52.142;5.408;2023-05-07T22:12:00;9.75;;;6.30;;
71763;SDS011;59602;52.142;5.408;2023-05-07T22:14:27;6.85;;;5.57;;
71763;SDS011;59602;52.142;5.408;2023-05-07T22:16:53;8.10;;;6.10;;
71763;SDS011;59602;52.142;5.408;2023-05-07T22:19:20;9.57;;;6.30;;
71763;SDS011;59602;52.142;5.408;2023-05-07T22:21:47;8.90;;;6.18;;
71763;SDS011;59602;52.142;5.408;2023-05-07T22:24:15;8.45;;;6.47;;
71763;SDS011;59602;52.142;5.408;2023-05-07T22:26:41;6.85;;;6.00;;
71763;SDS011;59602;52.142;5.408;2023-05-07T22:29:08;6.63;;;5.60;;
71763;SDS011;59602;52.142;5.408;2023-05-07T22:31:35;6.83;;;5.73;;
71763;SDS011;59602;52.142;5.408;2023-05-07T22:34:02;7.57;;;5.97;;
71763;SDS011;59602;52.142;5.408;2023-05-07T22:36:28;8.77;;;6.43;;
71763;SDS011;59602;52.142;5.408;2023-05-07T22:39:12;6.88;;;5.63;;
71763;SDS011;59602;52.142;5.408;2023-05-07T22:41:38;8.98;;;5.82;;
71763;SDS011;59602;52.142;5.408;2023-05-07T22:44:05;8.57;;;6.13;;
71763;SDS011;59602;52.142;5.408;2023-05-07T22:46:32;8.60;;;6.47;;
71763;SDS011;59602;52.142;5.408;2023-05-07T22:48:59;7.13;;;5.75;;
71763;SDS011;59602;52.142;5.408;2023-05-07T22:51:25;8.70;;;6.22;;
71763;SDS011;59602;52.142;5.408;2023-05-07T22:53:52;8.40;;;5.95;;
71763;SDS011;59602;52.142;5.408;2023-05-07T22:56:19;8.47;;;6.20;;
71763;SDS011;59602;52.142;5.408;2023-05-07T22:58:53;6.25;;;4.90;;
71763;SDS011;59602;52.142;5.408;2023-05-07T23:01:20;6.43;;;5.20;;
71763;SDS011;59602;52.142;5.408;2023-05-07T23:03:47;7.00;;;4.57;;
71763;SDS011;59602;52.142;5.408;2023-05-07T23:06:14;4.25;;;3.33;;
71763;SDS011;59602;52.142;5.408;2023-05-07T23:08:40;5.30;;;4.23;;
71763;SDS011;59602;52.142;5.408;2023-05-07T23:11:07;6.40;;;5.00;;
71763;SDS011;59602;52.142;5.408;2023-05-07T23:13:34;5.85;;;4.03;;
71763;SDS011;59602;52.142;5.408;2023-05-07T23:16:00;6.07;;;4.63;;
71763;SDS011;59602;52.142;5.408;2023-05-07T23:18:27;5.50;;;4.95;;
71763;SDS011;59602;52.142;5.408;2023-05-07T23:20:55;9.33;;;5.40;;
71763;SDS011;59602;52.142;5.408;2023-05-07T23:23:22;6.88;;;5.43;;
71763;SDS011;59602;52.142;5.408;2023-05-07T23:25:50;8.02;;;5.15;;
71763;SDS011;59602;52.142;5.408;2023-05-07T23:28:17;7.53;;;5.82;;
71763;SDS011;59602;52.142;5.408;2023-05-07T23:30:45;8.27;;;5.95;;
71763;SDS011;59602;52.142;5.408;2023-05-07T23:33:12;7.90;;;6.00;;
71763;SDS011;59602;52.142;5.408;2023-05-07T23:35:38;7.28;;;5.60;;
71763;SDS011;59602;52.142;5.408;2023-05-07T23:38:05;7.38;;;5.20;;
71763;SDS011;59602;52.142;5.408;2023-05-07T23:40:32;7.40;;;5.60;;
71763;SDS011;59602;52.142;5.408;2023-05-07T23:42:59;6.25;;;4.97;;
71763;SDS011;59602;52.142;5.408;2023-05-07T23:45:26;5.53;;;4.10;;
71763;SDS011;59602;52.142;5.408;2023-05-07T23:47:53;6.57;;;5.35;;
71763;SDS011;59602;52.142;5.408;2023-05-07T23:50:20;8.07;;;6.18;;
71763;SDS011;59602;52.142;5.408;2023-05-07T23:52:47;9.20;;;6.10;;
71763;SDS011;59602;52.142;5.408;2023-05-07T23:55:14;8.43;;;6.10;;
71763;SDS011;59602;52.142;5.408;2023-05-07T23:57:42;6.60;;;5.10;;
